createdAt,value
2019-01-18T00:03:26.568Z,-0.80
2019-01-18T00:05:54.853Z,-0.81
2019-01-18T00:08:23.120Z,-0.80
2019-01-18T00:10:51.408Z,-0.76
2019-01-18T00:13:19.692Z,-0.87
2019-01-18T00:15:47.956Z,-0.89
2019-01-18T00:18:16.300Z,-0.83
2019-01-18T00:20:44.576Z,-0.84
2019-01-18T00:23:12.839Z,-0.87
2019-01-18T00:25:41.179Z,-0.79
2019-01-18T00:28:09.445Z,-0.79
2019-01-18T00:30:37.720Z,-0.78
2019-01-18T00:33:06.061Z,-0.71
2019-01-18T00:35:34.327Z,-0.75
2019-01-18T00:38:02.598Z,-0.72
2019-01-18T00:40:30.866Z,-0.65
2019-01-18T00:42:59.124Z,-0.59
2019-01-18T00:45:27.392Z,-0.50
2019-01-18T00:47:55.647Z,-0.56
2019-01-18T00:50:23.942Z,-0.70
2019-01-18T00:52:52.201Z,-0.73
2019-01-18T00:55:20.545Z,-0.95
2019-01-18T00:57:48.807Z,-0.86
2019-01-18T01:00:57.094Z,-0.75
2019-01-18T01:03:25.351Z,-0.96
2019-01-18T01:05:53.604Z,-0.81
2019-01-18T01:08:21.878Z,-0.79
2019-01-18T01:10:50.150Z,-0.93
2019-01-18T01:13:18.470Z,-1.06
2019-01-18T01:15:46.739Z,-0.96
2019-01-18T01:18:15.004Z,-1.04
2019-01-18T01:20:43.293Z,-1.11
2019-01-18T01:23:11.564Z,-1.02
2019-01-18T01:25:39.844Z,-0.95
2019-01-18T01:28:08.126Z,-0.98
2019-01-18T01:30:36.372Z,-1.14
2019-01-18T01:33:04.800Z,-1.05
2019-01-18T01:35:33.064Z,-1.10
2019-01-18T01:38:01.307Z,-1.22
2019-01-18T01:40:29.570Z,-1.08
2019-01-18T01:42:57.825Z,-1.35
2019-01-18T01:45:26.150Z,-1.29
2019-01-18T01:47:54.405Z,-1.29
2019-01-18T01:51:02.713Z,-1.37
2019-01-18T01:53:30.973Z,-1.23
2019-01-18T01:55:59.244Z,-1.25
2019-01-18T01:58:27.497Z,-1.34
2019-01-18T02:00:55.753Z,-1.40
2019-01-18T02:03:24.018Z,-1.45
2019-01-18T02:05:52.276Z,-1.57
2019-01-18T02:08:20.544Z,-1.62
2019-01-18T02:10:48.799Z,-1.54
2019-01-18T02:13:17.068Z,-1.79
2019-01-18T02:15:45.469Z,-1.78
2019-01-18T02:18:13.763Z,-1.84
2019-01-18T02:20:42.025Z,-1.83
2019-01-18T02:23:10.287Z,-1.84
2019-01-18T02:25:38.537Z,-1.84
2019-01-18T02:28:06.805Z,-1.85
2019-01-18T02:30:35.077Z,-1.76
2019-01-18T02:33:03.349Z,-1.84
2019-01-18T02:35:31.642Z,-1.81
2019-01-18T02:37:59.900Z,-1.83
2019-01-18T02:40:28.165Z,-1.78
2019-01-18T02:42:56.434Z,-1.79
2019-01-18T02:45:24.764Z,-1.83
2019-01-18T02:47:53.023Z,-1.95
2019-01-18T02:50:21.292Z,-1.92
2019-01-18T02:52:49.571Z,-2.04
2019-01-18T02:55:57.849Z,-2.09
2019-01-18T02:58:26.114Z,-2.04
2019-01-18T03:00:54.388Z,-1.90
2019-01-18T03:03:22.657Z,-1.91
2019-01-18T03:05:50.900Z,-2.06
2019-01-18T03:08:19.180Z,-1.96
2019-01-18T03:10:47.431Z,-1.88
2019-01-18T03:13:15.678Z,-2.02
2019-01-18T03:15:43.942Z,-2.09
2019-01-18T03:18:12.193Z,-2.12
2019-01-18T03:20:40.449Z,-2.06
2019-01-18T03:23:08.719Z,-2.20
2019-01-18T03:25:36.985Z,-2.19
2019-01-18T03:28:05.257Z,-2.23
2019-01-18T03:30:33.512Z,-2.31
2019-01-18T03:33:01.760Z,-2.31
2019-01-18T03:35:30.040Z,-2.39
2019-01-18T03:37:58.305Z,-2.34
2019-01-18T03:40:26.574Z,-2.40
2019-01-18T03:42:54.830Z,-2.28
2019-01-18T03:45:23.097Z,-2.38
2019-01-18T03:47:51.358Z,-2.42
2019-01-18T03:50:59.635Z,-2.47
2019-01-18T03:53:27.916Z,-2.42
2019-01-18T03:55:56.203Z,-2.42
2019-01-18T03:58:24.482Z,-2.51
2019-01-18T04:00:52.764Z,-2.47
2019-01-18T04:03:21.029Z,-2.48
2019-01-18T04:05:49.297Z,-2.42
2019-01-18T04:08:17.554Z,-2.40
2019-01-18T04:10:45.801Z,-2.48
2019-01-18T04:13:14.084Z,-2.51
2019-01-18T04:18:31.306Z,-2.52
2019-01-18T04:20:59.555Z,-2.56
2019-01-18T04:23:27.822Z,-2.55
2019-01-18T04:25:56.071Z,-2.52
2019-01-18T04:28:24.372Z,-2.50
2019-01-18T04:30:52.626Z,-2.48
2019-01-18T04:33:20.889Z,-2.46
2019-01-18T04:35:49.138Z,-2.47
2019-01-18T04:38:17.385Z,-2.36
2019-01-18T04:40:45.638Z,-2.26
2019-01-18T04:43:13.893Z,-2.25
2019-01-18T04:45:42.149Z,-2.19
2019-01-18T04:48:10.406Z,-2.43
2019-01-18T04:50:38.661Z,-2.49
2019-01-18T04:53:06.922Z,-2.64
2019-01-18T04:55:35.245Z,-2.67
2019-01-18T04:58:03.537Z,-2.59
2019-01-18T05:01:11.884Z,-2.55
2019-01-18T05:03:40.382Z,-2.51
2019-01-18T05:06:08.648Z,-2.73
2019-01-18T05:08:36.919Z,-2.95
2019-01-18T05:11:05.180Z,-3.02
2019-01-18T05:13:33.439Z,-3.01
2019-01-18T05:18:50.744Z,-3.05
2019-01-18T05:21:18.994Z,-3.10
2019-01-18T05:23:47.241Z,-3.14
2019-01-18T05:26:15.503Z,-3.10
2019-01-18T05:28:43.751Z,-3.12
2019-01-18T05:31:12.023Z,-3.11
2019-01-18T05:33:40.462Z,-3.12
2019-01-18T05:36:08.717Z,-3.00
2019-01-18T05:38:36.977Z,-3.09
2019-01-18T05:41:05.244Z,-3.10
2019-01-18T05:43:33.511Z,-3.07
2019-01-18T05:46:01.821Z,-3.05
2019-01-18T05:48:30.089Z,-3.03
2019-01-18T05:50:58.359Z,-3.09
2019-01-18T05:56:16.086Z,-3.03
2019-01-18T05:58:44.340Z,-2.96
2019-01-18T06:01:12.669Z,-3.11
2019-01-18T06:03:42.001Z,-3.00
2019-01-18T06:06:10.270Z,-2.95
2019-01-18T06:08:38.523Z,-2.91
2019-01-18T06:11:06.794Z,-2.85
2019-01-18T06:13:35.056Z,-2.86
2019-01-18T06:16:03.347Z,-2.82
2019-01-18T06:18:31.591Z,-2.89
2019-01-18T06:20:59.873Z,-2.99
2019-01-18T06:23:28.124Z,-3.19
2019-01-18T06:25:56.383Z,-3.09
2019-01-18T06:28:24.650Z,-3.02
2019-01-18T06:30:52.908Z,-2.99
2019-01-18T06:33:21.163Z,-2.96
2019-01-18T06:35:49.425Z,-2.97
2019-01-18T06:38:17.807Z,-2.95
2019-01-18T06:43:35.008Z,-2.97
2019-01-18T06:46:03.275Z,-2.97
2019-01-18T06:51:10.504Z,-2.91
2019-01-18T06:53:38.885Z,-2.97
2019-01-18T06:56:07.147Z,-2.95
2019-01-18T06:58:35.419Z,-2.98
2019-01-18T07:01:08.444Z,-2.97
2019-01-18T07:03:33.674Z,-2.95
2019-01-18T07:06:01.928Z,-3.01
2019-01-18T07:08:42.408Z,-2.97
2019-01-18T07:11:10.660Z,-2.98
2019-01-18T07:13:40.008Z,-3.04
2019-01-18T07:16:08.290Z,-3.07
2019-01-18T07:18:36.551Z,-3.06
2019-01-18T07:21:04.820Z,-3.01
2019-01-18T07:23:33.094Z,-3.00
2019-01-18T07:26:01.354Z,-3.02
2019-01-18T07:28:29.604Z,-3.03
2019-01-18T07:31:37.894Z,-2.97
2019-01-18T07:34:06.232Z,-2.92
2019-01-18T07:36:34.426Z,-2.88
2019-01-18T07:39:02.701Z,-2.81
2019-01-18T07:41:31.000Z,-2.72
2019-01-18T07:43:59.291Z,-2.74
2019-01-18T07:46:27.562Z,-2.69
2019-01-18T07:48:55.822Z,-2.70
2019-01-18T07:51:24.095Z,-2.65
2019-01-18T07:53:52.356Z,-2.55
2019-01-18T07:56:20.616Z,-2.48
2019-01-18T07:58:48.891Z,-2.47
2019-01-18T08:01:22.040Z,-2.42
2019-01-18T08:03:47.147Z,-2.43
2019-01-18T08:06:15.419Z,-2.39
2019-01-18T08:08:43.696Z,-2.33
2019-01-18T08:11:11.952Z,-2.31
2019-01-18T08:13:40.315Z,-2.33
2019-01-18T08:16:08.585Z,-2.26
2019-01-18T08:18:36.862Z,-2.20
2019-01-18T08:21:05.182Z,-2.06
2019-01-18T08:23:33.468Z,-2.02
2019-01-18T08:26:01.757Z,-1.89
2019-01-18T08:28:30.008Z,-1.76
2019-01-18T08:30:58.278Z,-1.60
2019-01-18T08:33:26.555Z,-1.54
2019-01-18T08:35:54.814Z,-1.43
2019-01-18T08:38:23.080Z,-1.46
2019-01-18T08:40:51.349Z,-1.40
2019-01-18T08:43:20.239Z,-1.39
2019-01-18T08:46:29.616Z,-1.46
2019-01-18T08:48:57.863Z,-1.45
2019-01-18T08:51:26.234Z,-1.43
2019-01-18T08:53:54.484Z,-1.37
2019-01-18T08:56:22.747Z,-1.32
2019-01-18T08:58:51.093Z,-1.35
2019-01-18T09:01:19.364Z,-1.36
2019-01-18T09:03:47.661Z,-1.30
2019-01-18T09:06:15.930Z,-1.26
2019-01-18T09:08:44.198Z,-1.27
2019-01-18T09:11:12.484Z,-1.19
2019-01-18T09:13:40.721Z,-1.16
2019-01-18T09:16:08.979Z,-1.12
2019-01-18T09:18:37.266Z,-1.12
2019-01-18T09:21:05.520Z,-1.06
2019-01-18T09:23:33.780Z,-1.00
2019-01-18T09:26:02.041Z,-0.86
2019-01-18T09:28:30.285Z,-0.81
2019-01-18T09:30:58.564Z,-0.83
2019-01-18T09:33:26.825Z,-0.79
2019-01-18T09:35:55.101Z,-0.81
2019-01-18T09:38:23.386Z,-0.83
2019-01-18T09:40:51.667Z,-0.76
2019-01-18T09:43:19.936Z,-0.76
2019-01-18T09:45:48.184Z,-0.64
2019-01-18T09:48:16.446Z,-0.61
2019-01-18T09:50:44.715Z,-0.63
2019-01-18T09:53:12.976Z,-0.51
2019-01-18T09:55:41.303Z,-0.48
2019-01-18T09:58:09.596Z,-0.44
2019-01-18T10:00:38.439Z,-0.35
2019-01-18T10:03:46.748Z,-0.32
2019-01-18T10:06:14.994Z,-0.21
2019-01-18T10:08:43.274Z,-0.11
2019-01-18T10:11:11.520Z,-0.03
2019-01-18T10:13:40.761Z,0.09
2019-01-18T10:16:09.022Z,0.11
2019-01-18T10:18:37.294Z,0.18
2019-01-18T10:21:05.618Z,0.24
2019-01-18T10:23:33.863Z,0.31
2019-01-18T10:26:02.111Z,0.40
2019-01-18T10:28:30.385Z,0.46
2019-01-18T10:30:58.630Z,0.50
2019-01-18T10:33:26.892Z,0.58
2019-01-18T10:35:55.153Z,0.46
2019-01-18T10:38:23.404Z,0.53
2019-01-18T10:40:51.680Z,0.40
2019-01-18T10:43:19.956Z,0.43
2019-01-18T10:45:48.260Z,0.39
2019-01-18T10:48:16.532Z,0.36
2019-01-18T10:50:44.792Z,0.39
2019-01-18T10:53:13.069Z,0.34
2019-01-18T10:55:41.338Z,0.43
2019-01-18T10:58:09.593Z,0.47
2019-01-18T11:00:37.847Z,0.55
2019-01-18T11:03:06.117Z,0.63
2019-01-18T11:05:34.460Z,0.58
2019-01-18T11:08:02.732Z,0.60
2019-01-18T11:10:31.007Z,0.66
2019-01-18T11:12:59.269Z,0.60
2019-01-18T11:16:07.564Z,0.63
2019-01-18T11:18:35.831Z,0.64
2019-01-18T11:24:05.854Z,0.66
2019-01-18T11:26:53.464Z,0.85
2019-01-18T11:29:21.746Z,0.85
2019-01-18T11:31:50.023Z,0.88
2019-01-18T11:36:58.240Z,0.93
2019-01-18T11:39:27.273Z,1.07
2019-01-18T11:41:55.549Z,1.16
2019-01-18T11:44:23.811Z,1.17
2019-01-18T11:46:52.069Z,1.05
2019-01-18T11:49:20.331Z,1.17
2019-01-18T11:51:48.649Z,1.15
2019-01-18T11:54:16.907Z,1.27
2019-01-18T11:56:45.191Z,1.34
2019-01-18T11:59:13.460Z,1.41
2019-01-18T12:01:41.751Z,1.43
2019-01-18T12:04:10.003Z,1.34
2019-01-18T12:06:38.271Z,1.30
2019-01-18T12:09:46.568Z,1.32
2019-01-18T12:12:14.822Z,1.47
2019-01-18T12:14:43.101Z,1.54
2019-01-18T12:17:11.336Z,1.65
2019-01-18T12:19:39.642Z,1.84
2019-01-18T12:22:07.892Z,1.82
2019-01-18T12:24:36.159Z,1.87
2019-01-18T12:27:04.420Z,1.87
2019-01-18T12:29:32.694Z,1.89
2019-01-18T12:32:00.970Z,1.94
2019-01-18T12:34:29.250Z,1.91
2019-01-18T12:36:58.838Z,1.78
2019-01-18T12:39:27.523Z,1.82
2019-01-18T12:41:55.796Z,1.78
2019-01-18T12:44:24.046Z,1.81
2019-01-18T12:46:52.383Z,1.81
2019-01-18T12:49:20.661Z,1.90
2019-01-18T12:51:48.931Z,1.93
2019-01-18T12:54:17.190Z,1.93
2019-01-18T12:56:45.470Z,1.87
2019-01-18T12:59:13.726Z,1.91
2019-01-18T13:01:41.981Z,1.82
2019-01-18T13:04:10.287Z,1.91
2019-01-18T13:06:38.542Z,1.82
2019-01-18T13:09:06.969Z,1.83
2019-01-18T13:11:36.274Z,1.91
2019-01-18T13:14:05.336Z,1.92
2019-01-18T13:16:34.690Z,1.84
2019-01-18T13:19:03.129Z,1.91
2019-01-18T13:21:31.425Z,1.93
2019-01-18T13:23:59.682Z,1.98
2019-01-18T13:26:27.938Z,2.03
2019-01-18T13:28:56.228Z,2.00
2019-01-18T13:31:24.501Z,1.97
2019-01-18T13:33:52.780Z,2.01
2019-01-18T13:36:21.062Z,1.98
2019-01-18T13:38:49.334Z,1.93
2019-01-18T13:41:17.595Z,1.90
2019-01-18T13:43:45.865Z,1.97
2019-01-18T13:46:14.131Z,1.94
2019-01-18T13:48:42.398Z,2.00
2019-01-18T13:51:10.653Z,1.93
2019-01-18T13:53:38.916Z,1.79
2019-01-18T13:56:07.172Z,1.81
2019-01-18T13:58:35.436Z,1.85
2019-01-18T14:01:03.707Z,1.88
2019-01-18T14:03:31.972Z,1.79
2019-01-18T14:06:00.234Z,1.86
2019-01-18T14:08:28.487Z,1.85
2019-01-18T14:10:56.751Z,1.87
2019-01-18T14:13:25.005Z,1.86
2019-01-18T14:15:53.281Z,1.90
2019-01-18T14:18:21.538Z,1.92
2019-01-18T14:20:49.809Z,1.88
2019-01-18T14:23:18.071Z,1.85
2019-01-18T14:25:46.406Z,1.79
2019-01-18T14:28:14.670Z,1.82
2019-01-18T14:30:42.946Z,1.81
2019-01-18T14:33:11.197Z,1.81
2019-01-18T14:35:39.463Z,1.81
2019-01-18T14:38:07.730Z,1.76
2019-01-18T14:40:36.001Z,1.70
2019-01-18T14:43:04.258Z,1.69
2019-01-18T14:45:51.873Z,1.67
2019-01-18T14:48:20.771Z,1.57
2019-01-18T14:50:49.029Z,1.56
2019-01-18T14:53:17.310Z,1.55
2019-01-18T14:58:24.723Z,1.48
2019-01-18T15:00:52.968Z,1.54
2019-01-18T15:03:21.309Z,1.80
2019-01-18T15:05:49.644Z,1.86
2019-01-18T15:08:24.089Z,2.03
2019-01-18T15:10:47.961Z,2.14
2019-01-18T15:16:17.877Z,1.96
2019-01-18T15:18:46.151Z,1.76
2019-01-18T15:21:14.417Z,1.76
2019-01-18T15:23:43.468Z,1.73
2019-01-18T15:26:18.290Z,1.67
2019-01-18T15:28:41.780Z,1.63
2019-01-18T15:31:10.032Z,1.51
2019-01-18T15:33:39.048Z,1.49
2019-01-18T15:36:07.375Z,1.38
2019-01-18T15:38:35.690Z,1.41
2019-01-18T15:41:04.044Z,1.32
2019-01-18T15:43:32.307Z,1.36
2019-01-18T15:46:00.572Z,1.43
2019-01-18T15:48:28.846Z,1.35
2019-01-18T15:50:57.112Z,1.31
2019-01-18T15:53:25.379Z,1.28
2019-01-18T15:55:53.658Z,1.30
2019-01-18T15:58:21.963Z,1.29
2019-01-18T16:00:50.263Z,1.42
2019-01-18T16:03:19.038Z,1.36
2019-01-18T16:05:47.306Z,1.36
2019-01-18T16:08:15.565Z,1.32
2019-01-18T16:10:43.896Z,1.34
2019-01-18T16:13:52.194Z,1.41
2019-01-18T16:17:00.484Z,1.44
2019-01-18T16:19:28.792Z,1.46
2019-01-18T16:21:57.013Z,1.44
2019-01-18T16:24:25.319Z,1.43
2019-01-18T16:26:53.590Z,1.57
2019-01-18T16:29:21.855Z,1.61
2019-01-18T16:31:50.141Z,1.56
2019-01-18T16:34:18.437Z,1.57
2019-01-18T16:36:46.746Z,1.55
2019-01-18T16:39:15.041Z,1.47
2019-01-18T16:41:43.330Z,1.49
2019-01-18T16:44:11.596Z,1.52
2019-01-18T16:46:39.837Z,1.54
2019-01-18T16:49:08.344Z,1.56
2019-01-18T16:51:56.129Z,1.58
2019-01-18T16:54:24.445Z,1.46
2019-01-18T17:00:26.719Z,1.49
2019-01-18T17:06:03.275Z,1.51
2019-01-18T17:08:53.124Z,1.45
2019-01-18T17:11:34.674Z,1.42
2019-01-18T17:14:24.090Z,1.44
2019-01-18T17:19:54.528Z,1.49
2019-01-18T17:22:22.849Z,1.50
2019-01-18T17:24:51.190Z,1.52
2019-01-18T17:27:19.477Z,1.55
2019-01-18T17:29:47.846Z,1.47
2019-01-18T17:32:16.116Z,1.37
2019-01-18T17:34:44.469Z,1.27
2019-01-18T17:37:12.801Z,1.28
2019-01-18T17:40:21.131Z,1.18
2019-01-18T17:43:29.755Z,1.13
2019-01-18T17:46:36.827Z,1.06
2019-01-18T17:49:45.206Z,1.10
2019-01-18T17:52:53.640Z,0.98
2019-01-18T17:55:55.518Z,1.03
2019-01-18T17:59:02.541Z,0.99
2019-01-18T18:02:10.949Z,0.97
2019-01-18T18:05:17.973Z,0.94
2019-01-18T18:08:25.014Z,0.81
2019-01-18T18:11:27.513Z,0.82
2019-01-18T18:14:13.106Z,0.81
2019-01-18T18:17:21.418Z,0.80
2019-01-18T18:20:29.747Z,0.87
2019-01-18T18:23:36.757Z,0.92
2019-01-18T18:26:45.123Z,0.92
2019-01-18T18:29:47.302Z,0.93
2019-01-18T18:32:54.306Z,0.90
2019-01-18T18:36:02.595Z,0.89
2019-01-18T18:39:09.586Z,0.91
2019-01-18T18:42:17.882Z,1.00
2019-01-18T18:45:24.844Z,0.95
2019-01-18T18:48:33.136Z,1.03
2019-01-18T18:51:40.102Z,0.94
2019-01-18T18:54:41.855Z,0.94
2019-01-18T18:57:43.336Z,0.93
2019-01-18T19:00:50.333Z,0.92
2019-01-18T19:03:57.436Z,0.90
2019-01-18T19:07:01.349Z,0.83
2019-01-18T19:10:09.712Z,0.80
2019-01-18T19:13:11.980Z,0.82
2019-01-18T19:16:18.950Z,0.90
2019-01-18T19:19:27.251Z,0.95
2019-01-18T19:22:34.254Z,0.99
2019-01-18T19:25:41.250Z,1.01
2019-01-18T19:28:48.224Z,1.08
2019-01-18T19:31:55.217Z,1.14
2019-01-18T19:35:02.206Z,1.12
2019-01-18T19:38:09.185Z,1.18
2019-01-18T19:41:10.721Z,1.24
2019-01-18T19:44:17.694Z,1.20
2019-01-18T19:47:26.138Z,1.28
2019-01-18T19:50:28.427Z,1.23
2019-01-18T19:53:35.647Z,1.26
2019-01-18T19:56:42.664Z,1.30
2019-01-18T19:59:44.528Z,1.31
2019-01-18T20:02:51.529Z,1.24
2019-01-18T20:05:59.890Z,1.27
2019-01-18T20:09:08.513Z,1.22
2019-01-18T20:12:10.708Z,1.27
2019-01-18T20:15:12.485Z,1.24
2019-01-18T20:18:19.532Z,1.21
2019-01-18T20:21:21.008Z,1.27
2019-01-18T20:24:22.937Z,1.22
2019-01-18T20:27:24.554Z,1.23
2019-01-18T20:30:24.813Z,1.26
2019-01-18T20:33:31.794Z,1.26
2019-01-18T20:36:33.578Z,1.28
2019-01-18T20:39:40.541Z,1.30
2019-01-18T20:42:47.542Z,1.21
2019-01-18T20:45:54.534Z,1.17
2019-01-18T20:49:01.535Z,1.12
2019-01-18T20:52:03.170Z,1.08
2019-01-18T20:55:04.977Z,1.00
2019-01-18T20:58:11.940Z,0.94
2019-01-18T21:01:18.933Z,0.85
2019-01-18T21:04:32.911Z,0.81
2019-01-18T21:07:29.857Z,0.82
2019-01-18T21:10:31.478Z,0.72
2019-01-18T21:13:33.311Z,0.73
2019-01-18T21:16:40.904Z,0.70
2019-01-18T21:19:48.665Z,0.67
2019-01-18T21:22:55.633Z,0.62
2019-01-18T21:26:02.633Z,0.51
2019-01-18T21:29:09.603Z,0.54
2019-01-18T21:32:16.611Z,0.51
2019-01-18T21:35:23.576Z,0.46
2019-01-18T21:38:31.866Z,0.41
2019-01-18T21:41:33.842Z,0.32
2019-01-18T21:44:40.849Z,0.33
2019-01-18T21:47:47.851Z,0.33
2019-01-18T21:50:54.836Z,0.24
2019-01-18T21:53:57.350Z,0.23
2019-01-18T21:57:04.314Z,0.18
2019-01-18T22:00:06.238Z,0.19
2019-01-18T22:03:08.492Z,0.11
2019-01-18T22:06:15.483Z,0.14
2019-01-18T22:09:22.477Z,0.08
2019-01-18T22:12:30.830Z,0.05
2019-01-18T22:15:37.807Z,0.08
2019-01-18T22:18:44.785Z,0.11
2019-01-18T22:21:46.849Z,0.09
2019-01-18T22:24:48.874Z,0.16
2019-01-18T22:27:50.543Z,0.21
2019-01-18T22:30:57.579Z,0.12
2019-01-18T22:33:59.925Z,0.11
2019-01-18T22:37:06.951Z,0.15
2019-01-18T22:40:13.977Z,0.12
2019-01-18T22:43:20.966Z,0.02
2019-01-18T22:46:27.937Z,-0.15
2019-01-18T22:49:36.281Z,-0.07
2019-01-18T22:52:43.254Z,-0.05
2019-01-18T22:58:49.189Z,-0.03
2019-01-18T23:01:57.565Z,-0.03
2019-01-18T23:04:59.692Z,0.01
2019-01-18T23:08:01.321Z,0.04
2019-01-18T23:11:02.917Z,-0.02
2019-01-18T23:14:04.747Z,-0.08
2019-01-18T23:17:11.724Z,-0.13
2019-01-18T23:20:18.729Z,-0.17
2019-01-18T23:23:20.937Z,-0.14
2019-01-18T23:26:22.393Z,-0.20
2019-01-18T23:29:24.456Z,-0.15
2019-01-18T23:32:31.439Z,-0.16
2019-01-18T23:35:38.426Z,-0.19
2019-01-18T23:38:40.067Z,-0.19
2019-01-18T23:41:41.755Z,-0.20
2019-01-18T23:44:43.605Z,-0.23
2019-01-18T23:47:46.716Z,-0.31
2019-01-18T23:50:53.699Z,-0.33
2019-01-18T23:54:00.687Z,-0.27
2019-01-18T23:57:02.688Z,-0.32
